Terminal Aerodrome Forecast
Issued by NWS

Home | Current Version | Previous Version | Text Only | Print | Product List | Glossary On
Versions: 1 2 3 4 5 6 7 8 9 10 11 12 13 14 15 16
134
FTUS42 KJAX 260659 AAA
TAFCRG
TAF AMD
KCRG 260659Z 2607/2706 32005KT P6SM VCSH SCT020 BKN040
      TEMPO 2608/2612 5SM SHRA BKN020 OVC040
     FM261400 04009KT P6SM VCSH SCT020 BKN030
     FM261700 07012KT P6SM VCTS BKN035CB
     FM262200 06007KT P6SM SCT040 BKN250=

USA.gov is the U.S. government's official web portal to all federal, state and local government web resources and services.